Time;durP1;ratioP1;P1;durP2;ratioP2;P2;SDS_P1;SDS_P2;PMS_P1;PMS_P2;Temp;Humidity;BMP_temperature;BMP_pressure;BME280_temperature;BME280_humidity;BME280_pressure;Samples;Min_cycle;Max_cycle;Signal;HPM_P1;HPM_P2
2022/11/26 00:00:24;;;;;;;35.72;15.23;;;77.70;2227.20;;;;;;5014852;28;20037;-83
2022/11/26 00:02:51;;;;;;;24.40;14.05;;;77.70;2227.20;;;;;;5033022;28;20031;-83
2022/11/26 00:05:17;;;;;;;27.90;14.35;;;77.70;2227.20;;;;;;5015388;28;20033;-83
2022/11/26 00:07:45;;;;;;;;;;;102.40;2227.20;;;;;;5016275;28;20032;-82
2022/11/26 00:10:19;;;;;;;26.60;13.98;;;102.40;2227.20;;;;;;5014662;28;19913;-82
2022/11/26 00:12:46;;;;;;;24.77;13.82;;;102.50;2227.20;;;;;;5015340;28;20026;-81
2022/11/26 00:15:14;;;;;;;;;;;102.60;2227.20;;;;;;5015736;28;20433;-83
2022/11/26 00:17:40;;;;;;;23.15;12.93;;;102.70;2227.20;;;;;;5031325;28;19912;-81
2022/11/26 00:20:06;;;;;;;;;;;102.60;2227.20;;;;;;5015371;28;20034;-81
2022/11/26 00:22:48;;;;;;;35.50;12.80;;;102.50;2227.20;;;;;;5014682;28;20003;-82
2022/11/26 00:25:23;;;;;;;27.95;13.10;;;102.50;2227.20;;;;;;5017701;28;20036;-82
2022/11/26 00:27:51;;;;;;;31.38;15.10;;;102.40;2227.20;;;;;;5036007;28;20037;-81
2022/11/26 00:30:24;;;;;;;29.77;13.30;;;77.70;2227.20;;;;;;5036623;28;20028;-83
2022/11/26 00:32:50;;;;;;;28.77;14.02;;;77.70;2227.20;;;;;;5018728;28;20021;-82
2022/11/26 00:35:17;;;;;;;23.95;13.60;;;77.70;2227.20;;;;;;5018286;28;20029;-82
2022/11/26 00:37:53;;;;;;;28.38;13.45;;;77.70;2227.20;;;;;;5051883;28;20021;-83
2022/11/26 00:40:30;;;;;;;19.77;10.60;;;102.40;2227.20;;;;;;5055626;28;20029;-81
2022/11/26 00:42:55;;;;;;;;;;;77.60;2227.20;;;;;;5038488;28;20029;-81
2022/11/26 00:45:24;;;;;;;24.80;12.52;;;77.40;2227.20;;;;;;5055784;28;19959;-83
2022/11/26 00:47:50;;;;;;;26.17;12.30;;;77.30;2227.20;;;;;;5036627;28;20029;-82
2022/11/26 00:50:22;;;;;;;27.42;13.38;;;77.10;2227.20;;;;;;5055371;28;20161;-82
2022/11/26 00:52:51;;;;;;;25.85;14.02;;;77.20;2227.20;;;;;;5037311;28;20048;-82
2022/11/26 00:55:26;;;;;;;29.23;14.10;;;77.50;2227.20;;;;;;5055483;28;20048;-80
2022/11/26 00:57:52;;;;;;;37.83;15.38;;;77.60;2227.20;;;;;;5037940;28;20025;-80
2022/11/26 01:00:19;;;;;;;;;;;77.70;2227.20;;;;;;5038121;28;20090;-81
2022/11/26 01:02:45;;;;;;;;;;;77.70;2227.20;;;;;;5054982;28;19912;-81
2022/11/26 01:05:12;;;;;;;34.57;15.23;;;102.40;2227.20;;;;;;5053982;28;19904;-82
2022/11/26 01:07:39;;;;;;;42.05;14.73;;;77.70;2227.20;;;;;;5038029;28;20485;-81
2022/11/26 01:10:05;;;;;;;35.35;14.98;;;77.70;2227.20;;;;;;5054361;28;20484;-82
2022/11/26 01:12:31;;;;;;;47.58;14.65;;;77.70;2227.20;;;;;;5037618;28;20047;-81
2022/11/26 01:14:57;;;;;;;;;;;77.60;2227.20;;;;;;5038193;28;20033;-83
2022/11/26 01:17:22;;;;;;;56.22;15.75;;;77.60;2227.20;;;;;;5037297;28;19905;-82
2022/11/26 01:19:48;;;;;;;;;;;77.60;2227.20;;;;;;5037558;28;20021;-81
2022/11/26 01:22:20;;;;;;;66.10;15.70;;;77.60;2227.20;;;;;;5037120;28;19937;-82
2022/11/26 01:24:47;;;;;;;37.88;15.85;;;77.70;2227.20;;;;;;5054178;28;20037;-83
2022/11/26 01:27:12;;;;;;;24.27;13.60;;;77.70;2227.20;;;;;;5037270;28;20025;-82
2022/11/26 01:29:38;;;;;;;;;;;77.70;2227.20;;;;;;5037942;28;20036;-81
2022/11/26 01:32:04;;;;;;;34.83;14.07;;;77.70;2227.20;;;;;;5037266;28;19927;-83
2022/11/26 01:34:29;;;;;;;;;;;77.60;2227.20;;;;;;5037412;28;20029;-81
2022/11/26 01:36:55;;;;;;;22.38;12.98;;;77.70;2227.20;;;;;;5027757;28;19909;-81
2022/11/26 01:39:22;;;;;;;;;;;77.70;2227.20;;;;;;5017817;28;20428;-81
2022/11/26 01:42:09;;;;;;;29.88;12.63;;;77.70;2227.20;;;;;;5017452;28;19905;-82
2022/11/26 01:44:36;;;;;;;24.88;12.70;;;77.60;2227.20;;;;;;5033808;28;20044;-82
2022/11/26 01:47:28;;;;;;;24.38;13.43;;;77.60;2227.20;;;;;;5017567;28;20044;-82
2022/11/26 01:50:28;;;;;;;20.55;12.68;;;77.60;2227.20;;;;;;5017069;28;20036;-81
2022/11/26 01:53:15;;;;;;;21.77;12.18;;;77.50;2227.20;;;;;;5033476;28;20127;-81
2022/11/26 01:55:48;;;;;;;20.35;12.63;;;77.60;2227.20;;;;;;4938055;29;20102;-82
2022/11/26 01:58:23;;;;;;;21.27;12.50;;;77.60;2227.20;;;;;;4954357;29;20085;-82
2022/11/26 02:00:49;;;;;;;22.20;12.18;;;77.50;2227.20;;;;;;4954559;29;20043;-83
2022/11/26 02:03:16;;;;;;;21.45;12.32;;;77.60;2227.20;;;;;;4954467;28;20023;-81
2022/11/26 02:05:55;;;;;;;22.60;13.20;;;77.70;2227.20;;;;;;4954395;28;20151;-81
2022/11/26 02:08:24;;;;;;;23.30;13.50;;;77.70;2227.20;;;;;;4952906;28;20035;-82
2022/11/26 02:10:51;;;;;;;25.63;15.32;;;102.40;2227.20;;;;;;4954026;29;20523;-80
2022/11/26 02:13:17;;;;;;;27.27;15.00;;;102.40;2227.20;;;;;;4954312;29;20039;-82
2022/11/26 02:15:51;;;;;;;;;;;77.70;2227.20;;;;;;4954426;29;20031;-81
2022/11/26 02:18:18;;;;;;;32.42;17.45;;;102.40;2227.20;;;;;;4938283;29;19911;-82
2022/11/26 02:21:06;;;;;;;30.58;16.45;;;102.50;2227.20;;;;;;4953767;28;20468;-81
2022/11/26 02:23:43;;;;;;;35.70;18.25;;;102.60;2227.20;;;;;;4953885;28;20032;-82
2022/11/26 02:26:46;;;;;;;34.28;18.45;;;102.70;2227.20;;;;;;4953661;29;20035;-83
2022/11/26 02:29:39;;;;;;;35.85;17.33;;;102.50;2227.20;;;;;;4954099;29;20101;-82
2022/11/26 02:32:21;;;;;;;27.55;14.10;;;102.50;2227.20;;;;;;4970151;28;20029;-82
2022/11/26 02:35:10;;;;;;;24.90;14.25;;;102.50;2227.20;;;;;;5016030;28;20021;-82
2022/11/26 02:37:53;;;;;;;25.33;14.07;;;102.50;2227.20;;;;;;5017730;28;20030;-82
2022/11/26 02:40:19;;;;;;;26.67;13.85;;;102.40;2227.20;;;;;;5004837;28;20560;-81
2022/11/26 02:42:45;;;;;;;26.55;13.73;;;77.50;2227.20;;;;;;5009932;28;20021;-79
2022/11/26 02:45:13;;;;;;;;;;;77.40;2227.20;;;;;;5013545;28;20120;-83
2022/11/26 02:47:39;;;;;;;;;;;77.20;2227.20;;;;;;5028349;28;19913;-84
2022/11/26 02:50:10;;;;;;;14.95;8.38;;;77.20;2227.20;;;;;;5002915;28;19905;-83
2022/11/26 02:52:39;;;;;;;22.40;12.38;;;77.30;2227.20;;;;;;5001859;28;20449;-83
2022/11/26 02:55:07;;;;;;;19.45;10.88;;;77.30;2227.20;;;;;;5011701;28;20050;-84
2022/11/26 02:57:40;;;;;;;20.15;11.35;;;77.40;2227.20;;;;;;5007368;28;20029;-80
2022/11/26 03:00:06;;;;;;;22.17;11.43;;;77.40;2227.20;;;;;;5011892;28;20030;-80
2022/11/26 03:02:50;;;;;;;19.77;11.52;;;77.30;2227.20;;;;;;5006558;28;20807;-80
2022/11/26 03:05:17;;;;;;;22.27;12.20;;;77.30;2227.20;;;;;;5006718;28;20507;-80
2022/11/26 03:07:48;;;;;;;34.55;14.10;;;77.30;2227.20;;;;;;5000227;28;20022;-84
2022/11/26 03:10:14;;;;;;;29.85;12.45;;;77.40;2227.20;;;;;;5003909;28;20040;-81
2022/11/26 03:12:40;;;;;;;27.25;13.40;;;77.30;2227.20;;;;;;5006590;28;20501;-79
2022/11/26 03:15:06;;;;;;;;;;;77.30;2227.20;;;;;;5001538;28;20068;-84
2022/11/26 03:17:32;;;;;;;72.28;15.25;;;77.40;2227.20;;;;;;5021068;28;20004;-83
2022/11/26 03:19:57;;;;;;;;;;;77.30;2227.20;;;;;;5012336;28;20053;-80
2022/11/26 03:22:23;;;;;;;40.75;14.38;;;77.20;2227.20;;;;;;5007856;28;19909;-80
2022/11/26 03:24:49;;;;;;;;;;;77.20;2227.20;;;;;;5007602;28;20037;-83
2022/11/26 03:27:15;;;;;;;28.85;13.90;;;77.20;2227.20;;;;;;5024476;28;19977;-85
2022/11/26 03:29:40;;;;;;;;;;;77.20;2227.20;;;;;;5001211;28;20021;-87
2022/11/26 03:32:06;;;;;;;25.45;13.95;;;77.30;2227.20;;;;;;5003145;28;20354;-86
2022/11/26 03:34:32;;;;;;;;;;;77.20;2227.20;;;;;;5001963;28;20075;-84
2022/11/26 03:36:57;;;;;;;43.85;14.98;;;77.10;2227.20;;;;;;5006388;28;19956;-80
2022/11/26 03:39:23;;;;;;;;;;;77.00;2227.20;;;;;;5004039;28;20032;-81
2022/11/26 03:41:49;;;;;;;32.05;13.75;;;76.90;2227.20;;;;;;5009555;28;19908;-83
2022/11/26 03:44:14;;;;;;;;;;;76.90;2227.20;;;;;;5018177;28;20018;-84
2022/11/26 03:46:40;;;;;;;34.35;12.35;;;76.80;2227.20;;;;;;5017964;28;19905;-82
2022/11/26 03:49:06;;;;;;;;;;;76.90;2227.20;;;;;;5009817;28;20109;-84
2022/11/26 03:51:32;;;;;;;46.78;13.45;;;76.80;2227.20;;;;;;4998286;28;19952;-84
2022/11/26 03:53:57;;;;;;;;;;;76.90;2227.20;;;;;;5006609;28;20029;-84
2022/11/26 03:56:23;;;;;;;32.53;12.23;;;76.90;2227.20;;;;;;5008842;28;19906;-83
2022/11/26 03:58:48;;;;;;;;;;;76.90;2227.20;;;;;;5008965;28;20539;-87
2022/11/26 04:01:14;;;;;;;32.47;12.10;;;77.00;2227.20;;;;;;5010276;28;19952;-80
2022/11/26 04:03:40;;;;;;;;;;;77.10;2227.20;;;;;;5004660;28;20017;-80
2022/11/26 04:06:06;;;;;;;48.08;14.55;;;77.10;2227.20;;;;;;5011349;28;19992;-84
2022/11/26 04:08:32;;;;;;;23.20;11.90;;;77.00;2227.20;;;;;;5007483;28;20106;-84
2022/11/26 04:10:57;;;;;;;;;;;76.90;2227.20;;;;;;5012829;28;20030;-80
2022/11/26 04:13:23;;;;;;;22.42;10.73;;;76.90;2227.20;;;;;;5007083;28;19978;-81
2022/11/26 04:15:49;;;;;;;;;;;76.90;2227.20;;;;;;5009122;28;20068;-82
2022/11/26 04:18:15;;;;;;;20.63;11.80;;;76.90;2227.20;;;;;;5012852;28;20400;-80
2022/11/26 04:20:41;;;;;;;;;;;77.10;2227.20;;;;;;5010624;28;20025;-83
2022/11/26 04:23:06;;;;;;;22.38;12.27;;;77.10;2227.20;;;;;;5010183;28;19909;-83
2022/11/26 04:25:32;;;;;;;;;;;77.20;2227.20;;;;;;5010478;28;20022;-82
2022/11/26 04:27:58;;;;;;;24.30;12.85;;;77.10;2227.20;;;;;;5009529;28;19905;-83
2022/11/26 04:30:23;;;;;;;;;;;77.10;2227.20;;;;;;5008037;28;20033;-83
2022/11/26 04:32:49;;;;;;;25.83;13.48;;;77.20;2227.20;;;;;;5013093;28;19959;-81
2022/11/26 04:35:15;;;;;;;;;;;77.10;2227.20;;;;;;5024615;28;20029;-81
2022/11/26 04:37:41;;;;;;;20.55;11.02;;;77.20;2227.20;;;;;;5009750;28;19911;-82
2022/11/26 04:40:07;;;;;;;;;;;77.00;2227.20;;;;;;5027649;28;20111;-83
2022/11/26 04:42:33;;;;;;;18.90;11.38;;;77.10;2227.20;;;;;;5025431;28;19981;-83
2022/11/26 04:44:59;;;;;;;23.10;14.27;;;77.00;2227.20;;;;;;5031953;28;20033;-81
2022/11/26 04:47:25;;;;;;;;;;;77.00;2227.20;;;;;;5004082;28;20018;-82
2022/11/26 04:49:50;;;;;;;32.25;16.55;;;77.10;2227.20;;;;;;5009133;28;19948;-82
2022/11/26 04:52:16;;;;;;;;;;;77.10;2227.20;;;;;;5006450;28;20038;-80
2022/11/26 04:54:42;;;;;;;35.85;13.48;;;77.10;2227.20;;;;;;5011225;28;20004;-83
2022/11/26 04:57:07;;;;;;;;;;;77.00;2227.20;;;;;;5011285;28;20014;-84
2022/11/26 04:59:33;;;;;;;42.00;16.45;;;77.00;2227.20;;;;;;5023201;28;20369;-83
2022/11/26 05:01:59;;;;;;;;;;;77.00;2227.20;;;;;;5018146;28;20026;-83
2022/11/26 05:04:26;;;;;;;41.63;17.63;;;77.00;2227.20;;;;;;5008062;28;19905;-82
2022/11/26 05:06:52;;;;;;;34.63;17.40;;;77.10;2227.20;;;;;;5009014;28;20029;-84
2022/11/26 05:09:17;;;;;;;;;;;77.10;2227.20;;;;;;5011637;28;20028;-84
2022/11/26 05:11:43;;;;;;;40.08;14.18;;;76.80;2227.20;;;;;;5014103;28;20288;-81
2022/11/26 05:14:08;;;;;;;;;;;76.90;2227.20;;;;;;5011913;28;20052;-81
2022/11/26 05:16:34;;;;;;;26.38;11.48;;;76.90;2227.20;;;;;;5009354;28;19913;-80
2022/11/26 05:19:00;;;;;;;;;;;76.80;2227.20;;;;;;5005873;28;20489;-83
2022/11/26 05:21:26;;;;;;;23.63;9.38;;;52.00;2227.20;;;;;;5009882;28;19909;-83
2022/11/26 05:23:51;;;;;;;;;;;51.90;2227.20;;;;;;5004554;28;20048;-80
2022/11/26 05:26:17;;;;;;;17.15;9.40;;;52.00;2227.20;;;;;;5005465;28;19944;-83
2022/11/26 05:28:42;;;;;;;;;;;51.90;2227.20;;;;;;5008545;28;20029;-85
2022/11/26 05:31:08;;;;;;;32.95;9.10;;;51.80;2227.20;;;;;;5013737;28;19952;-85
2022/11/26 05:33:34;;;;;;;;;;;51.80;2227.20;;;;;;5011176;28;20018;-81
2022/11/26 05:35:59;;;;;;;22.38;8.88;;;51.90;2227.20;;;;;;5010910;28;19917;-85
2022/11/26 05:38:25;;;;;;;;;;;51.90;2227.20;;;;;;5014670;28;20048;-86
2022/11/26 05:40:51;;;;;;;20.40;9.18;;;51.90;2227.20;;;;;;5010625;28;20350;-85
2022/11/26 05:43:17;;;;;;;;;;;51.80;2227.20;;;;;;5028111;28;20084;-80
2022/11/26 05:45:43;;;;;;;26.25;12.80;;;51.80;2227.20;;;;;;5006106;28;19905;-83
2022/11/26 05:48:08;;;;;;;;;;;51.80;2227.20;;;;;;5011325;28;20041;-84
2022/11/26 05:50:34;;;;;;;45.92;12.05;;;51.90;2227.20;;;;;;5024845;28;19906;-79
2022/11/26 05:53:00;;;;;;;;;;;52.00;2227.20;;;;;;5005593;28;20510;-81
2022/11/26 05:55:25;;;;;;;46.20;9.93;;;51.90;2227.20;;;;;;5024396;28;20012;-83
2022/11/26 05:57:51;;;;;;;;;;;51.80;2227.20;;;;;;5005916;28;20037;-80
2022/11/26 06:00:17;;;;;;;27.75;9.82;;;51.80;2227.20;;;;;;5008240;28;19927;-80
2022/11/26 06:02:44;;;;;;;36.60;10.98;;;51.70;2227.20;;;;;;5004342;28;20501;-80
2022/11/26 06:05:10;;;;;;;29.60;12.02;;;51.60;2227.20;;;;;;4999465;28;20095;-84
2022/11/26 06:07:35;;;;;;;;;;;51.70;2227.20;;;;;;5007545;28;20466;-81
2022/11/26 06:10:01;;;;;;;21.67;10.27;;;51.90;2227.20;;;;;;5007352;28;19912;-80
2022/11/26 06:12:27;;;;;;;;;;;51.90;2227.20;;;;;;5005060;28;20024;-80
2022/11/26 06:14:52;;;;;;;80.60;14.75;;;52.00;2227.20;;;;;;5007051;28;20306;-83
2022/11/26 06:17:18;;;;;;;;;;;52.10;2227.20;;;;;;5005781;28;20034;-81
2022/11/26 06:19:43;;;;;;;39.67;11.65;;;52.10;2227.20;;;;;;5016291;28;19905;-80
2022/11/26 06:22:09;;;;;;;;;;;52.10;2227.20;;;;;;5034341;28;20108;-81
2022/11/26 06:24:35;;;;;;;55.70;13.32;;;76.80;2227.20;;;;;;5008132;28;19932;-79
2022/11/26 06:27:00;;;;;;;;;;;52.10;2227.20;;;;;;5010820;28;20044;-80
2022/11/26 06:29:26;;;;;;;63.97;12.50;;;76.80;2227.20;;;;;;5012029;28;20368;-82
2022/11/26 06:31:52;;;;;;;;;;;52.10;2227.20;;;;;;5006879;28;20095;-80
2022/11/26 06:34:17;;;;;;;61.50;13.27;;;51.90;2227.20;;;;;;5002170;28;19956;-81
2022/11/26 06:36:43;;;;;;;;;;;52.00;2227.20;;;;;;5013125;28;20080;-82
2022/11/26 06:39:09;;;;;;;32.72;9.63;;;51.80;2227.20;;;;;;5008524;28;19906;-84
2022/11/26 06:41:35;;;;;;;16.25;9.48;;;51.90;2227.20;;;;;;5019766;28;20026;-83
2022/11/26 06:44:01;;;;;;;;;;;52.00;2227.20;;;;;;5002007;28;20028;-81
2022/11/26 06:46:27;;;;;;;59.78;11.63;;;52.10;2227.20;;;;;;5003890;28;19952;-79
2022/11/26 06:48:53;;;;;;;;;;;52.00;2227.20;;;;;;5009829;28;20065;-77
2022/11/26 06:51:20;;;;;;;76.70;12.15;;;76.80;2227.20;;;;;;5008345;28;20454;-80
2022/11/26 06:53:47;;;;;;;25.42;9.30;;;76.80;2227.20;;;;;;5015504;28;20036;-80
2022/11/26 06:56:15;;;;;;;25.75;10.05;;;76.90;2227.20;;;;;;5015568;28;20038;-78
2022/11/26 06:58:41;;;;;;;33.63;12.30;;;77.10;2227.20;;;;;;5021419;28;20030;-77
2022/11/26 07:01:08;;;;;;;70.93;13.57;;;77.20;2227.20;;;;;;5016084;28;20025;-79
2022/11/26 07:03:34;;;;;;;52.55;13.45;;;77.20;2227.20;;;;;;5030376;28;20057;-79
2022/11/26 07:06:00;;;;;;;;;;;77.30;2227.20;;;;;;5013343;28;20057;-80
2022/11/26 07:08:25;;;;;;;32.90;11.02;;;77.40;2227.20;;;;;;5013019;28;20314;-79
2022/11/26 07:10:51;;;;;;;;;;;77.40;2227.20;;;;;;5027716;28;20080;-81
2022/11/26 07:13:17;;;;;;;66.60;13.02;;;77.40;2227.20;;;;;;5013311;28;19909;-80
2022/11/26 07:15:42;;;;;;;;;;;77.50;2227.20;;;;;;5018666;28;20141;-78
2022/11/26 07:18:08;;;;;;;40.08;11.00;;;77.50;2227.20;;;;;;5004043;28;20419;-81
2022/11/26 07:20:34;;;;;;;;;;;77.60;2227.20;;;;;;5027917;28;20100;-83
2022/11/26 07:23:01;;;;;;;32.97;11.75;;;77.50;2227.20;;;;;;5014956;28;19917;-83
2022/11/26 07:25:28;;;;;;;39.20;11.15;;;77.60;2227.20;;;;;;5013873;28;20018;-81
2022/11/26 07:27:54;;;;;;;37.45;13.93;;;77.60;2227.20;;;;;;5015632;28;20026;-81
2022/11/26 07:30:20;;;;;;;;;;;77.70;2227.20;;;;;;5014944;28;20042;-80
2022/11/26 07:32:45;;;;;;;44.55;12.10;;;77.60;2227.20;;;;;;5032270;28;19909;-80
2022/11/26 07:35:11;;;;;;;;;;;77.70;2227.20;;;;;;5003345;28;20036;-81
2022/11/26 07:37:37;;;;;;;55.40;15.80;;;77.60;2227.20;;;;;;5016091;28;19916;-79
2022/11/26 07:40:04;;;;;;;;;;;102.40;2227.20;;;;;;5007742;28;20045;-81
2022/11/26 07:42:31;;;;;;;58.15;20.02;;;102.40;2227.20;;;;;;5011147;28;19909;-81
2022/11/26 07:44:57;;;;;;;58.83;21.08;;;102.40;2227.20;;;;;;5016927;28;20031;-84
2022/11/26 07:47:22;;;;;;;;;;;102.40;2227.20;;;;;;5019442;28;20377;-84
2022/11/26 07:49:48;;;;;;;58.78;20.60;;;102.50;2227.20;;;;;;5007744;28;20282;-83
2022/11/26 07:52:14;;;;;;;;;;;102.50;2227.20;;;;;;5012474;28;20056;-83
2022/11/26 07:54:39;;;;;;;54.78;21.80;;;102.50;2227.20;;;;;;5010175;28;19991;-83
2022/11/26 07:57:05;;;;;;;;;;;102.60;2227.20;;;;;;5016052;28;20071;-87
2022/11/26 07:59:31;;;;;;;34.00;14.15;;;102.50;2227.20;;;;;;5016958;28;19948;-85
2022/11/26 08:01:56;;;;;;;;;;;102.50;2227.20;;;;;;5008569;28;20022;-84
2022/11/26 08:04:22;;;;;;;33.90;13.23;;;102.50;2227.20;;;;;;5035810;28;19909;-85
2022/11/26 08:06:47;;;;;;;;;;;102.50;2227.20;;;;;;5019446;28;20029;-83
2022/11/26 08:09:13;;;;;;;55.25;14.20;;;102.40;2227.20;;;;;;5019458;28;20261;-84
2022/11/26 08:11:39;;;;;;;;;;;102.40;2227.20;;;;;;5017535;28;20113;-85
2022/11/26 08:14:08;;;;;;;59.40;14.95;;;102.60;2227.20;;;;;;5016370;28;19912;-78
2022/11/26 08:16:34;;;;;;;46.00;16.40;;;102.50;2227.20;;;;;;5016717;28;20030;-87
2022/11/26 08:19:01;;;;;;;;;;;102.60;2227.20;;;;;;5009058;28;20030;-83
2022/11/26 08:21:27;;;;;;;45.70;15.25;;;102.50;2227.20;;;;;;5018624;28;20269;-81
2022/11/26 08:23:53;;;;;;;;;;;102.60;2227.20;;;;;;5036311;28;20038;-86
2022/11/26 08:26:19;;;;;;;51.00;19.83;;;102.40;2227.20;;;;;;5018576;28;19912;-87
2022/11/26 08:28:46;;;;;;;59.42;20.98;;;102.70;2227.20;;;;;;5018377;28;20013;-80
2022/11/26 08:31:13;;;;;;;49.33;19.98;;;102.50;2227.20;;;;;;5023689;28;20033;-81
2022/11/26 08:33:39;;;;;;;59.65;21.42;;;102.70;2227.20;;;;;;5016128;28;20068;-82
2022/11/26 08:36:06;;;;;;;;;;;102.70;2227.20;;;;;;5019199;28;20029;-81
2022/11/26 08:38:31;;;;;;;41.22;16.80;;;102.80;2227.20;;;;;;5032789;28;19927;-78
2022/11/26 08:41:05;;;;;;;;;;;102.80;2227.20;;;;;;5006646;28;20382;-78
2022/11/26 08:43:30;;;;;;;63.83;22.05;;;102.90;2227.20;;;;;;5017998;28;19957;-78
2022/11/26 08:45:57;;;;;;;;;;;102.80;2227.20;;;;;;5035671;28;20061;-78
2022/11/26 08:48:24;;;;;;;28.90;10.95;;;102.80;2227.20;;;;;;5017721;28;19931;-82
2022/11/26 08:50:50;;;;;;;46.67;16.70;;;102.90;2227.20;;;;;;5021683;28;20379;-79
2022/11/26 08:53:16;;;;;;;34.85;15.48;;;102.90;2227.20;;;;;;5017186;28;20124;-80
2022/11/26 08:55:42;;;;;;;;;;;102.90;2227.20;;;;;;5017909;28;20033;-80
2022/11/26 08:58:08;;;;;;;37.00;13.18;;;103.00;2227.20;;;;;;5034194;28;20289;-80
2022/11/26 09:00:33;;;;;;;;;;;103.00;2227.20;;;;;;5017981;28;20167;-79
2022/11/26 09:02:59;;;;;;;27.65;13.27;;;103.00;2227.20;;;;;;5032813;28;19916;-79
2022/11/26 09:05:25;;;;;;;;;;;102.90;2227.20;;;;;;5006550;28;20022;-85
2022/11/26 09:07:51;;;;;;;25.33;10.00;;;102.90;2227.20;;;;;;5024394;28;19905;-79
2022/11/26 09:10:16;;;;;;;;;;;102.90;2227.20;;;;;;5017369;28;20108;-79
2022/11/26 09:12:42;;;;;;;32.45;8.93;;;102.80;2227.20;;;;;;5011868;28;20380;-82
2022/11/26 09:15:08;;;;;;;;;;;102.80;2227.20;;;;;;5012016;28;20056;-84
2022/11/26 09:17:34;;;;;;;19.10;9.57;;;102.90;2227.20;;;;;;5008568;28;19936;-82
2022/11/26 09:20:00;;;;;;;;;;;103.00;2227.20;;;;;;5015364;28;20044;-83
2022/11/26 09:22:25;;;;;;;17.17;9.80;;;103.10;2227.20;;;;;;5017287;28;20012;-82
2022/11/26 09:24:51;;;;;;;;;;;103.20;2227.20;;;;;;5017319;28;20421;-84
2022/11/26 09:27:17;;;;;;;26.63;10.45;;;103.20;2227.20;;;;;;5034349;28;19912;-87
2022/11/26 09:29:42;;;;;;;;;;;103.20;2227.20;;;;;;5018230;28;20128;-82
2022/11/26 09:32:08;;;;;;;29.45;11.00;;;103.30;2227.20;;;;;;5018285;28;19905;-87
2022/11/26 09:34:34;;;;;;;;;;;103.20;2227.20;;;;;;5007071;28;20168;-89
2022/11/26 09:37:00;;;;;;;15.07;9.60;;;128.00;2252.80;;;;;;5016868;28;20062;-83
2022/11/26 09:39:26;;;;;;;;;;;103.20;2227.20;;;;;;5005149;28;20045;-80
2022/11/26 09:42:05;;;;;;;25.60;12.65;;;103.30;2227.20;;;;;;5022978;28;19909;-82
2022/11/26 09:45:02;;;;;;;30.80;14.35;;;103.20;2227.20;;;;;;5012828;28;20060;-86
2022/11/26 09:47:36;;;;;;;26.55;12.65;;;128.10;2252.80;;;;;;5021183;28;20034;-83
2022/11/26 09:50:13;;;;;;;27.50;12.05;;;128.00;2252.80;;;;;;5010556;28;20105;-78
2022/11/26 09:52:44;;;;;;;33.70;16.50;;;128.00;2252.80;;;;;;5006754;28;20063;-75
2022/11/26 09:55:16;;;;;;;47.88;19.90;;;128.20;2252.80;;;;;;5003739;28;20044;-77
2022/11/26 09:57:48;;;;;;;48.55;20.08;;;128.40;2252.80;;;;;;5004443;28;20504;-80
2022/11/26 10:00:24;;;;;;;50.97;23.42;;;128.50;2252.80;;;;;;5028391;28;20022;-78
2022/11/26 10:02:52;;;;;;;34.97;20.00;;;128.30;2252.80;;;;;;5042179;28;20456;-80
2022/11/26 10:05:19;;;;;;;49.03;20.85;;;128.30;2252.80;;;;;;5039883;28;20063;-81
2022/11/26 10:08:06;;;;;;;39.85;18.85;;;128.50;2252.80;;;;;;5016749;28;20030;-79
2022/11/26 10:10:32;;;;;;;;;;;128.60;2252.80;;;;;;4996539;28;20030;-81
2022/11/26 10:13:24;;;;;;;37.92;19.10;;;128.40;2252.80;;;;;;5013637;28;19906;-83
2022/11/26 10:16:15;;;;;;;33.85;19.98;;;128.40;2252.80;;;;;;4996557;28;20044;-84
2022/11/26 10:19:05;;;;;;;55.50;25.40;;;128.50;2252.80;;;;;;5031536;28;20528;-81
2022/11/26 10:21:35;;;;;;;53.58;24.80;;;128.80;2252.80;;;;;;5033934;28;20068;-82
2022/11/26 10:24:27;;;;;;;60.10;28.52;;;128.70;2252.80;;;;;;5015727;28;20041;-85
2022/11/26 10:26:54;;;;;;;53.72;26.90;;;128.70;2252.80;;;;;;5033094;28;20035;-83
2022/11/26 10:29:23;;;;;;;45.00;22.67;;;128.70;2252.80;;;;;;5016757;28;20029;-82
2022/11/26 10:31:59;;;;;;;41.17;20.40;;;128.60;2252.80;;;;;;5016587;28;20069;-82
2022/11/26 10:34:36;;;;;;;55.25;27.85;;;128.80;2252.80;;;;;;5022758;28;20029;-82
2022/11/26 10:37:03;;;;;;;49.28;20.23;;;128.90;2252.80;;;;;;5052867;28;20094;-81
2022/11/26 10:39:29;;;;;;;34.47;17.45;;;153.70;2252.80;;;;;;5052422;28;20041;-81
2022/11/26 10:41:55;;;;;;;38.22;21.63;;;153.80;2252.80;;;;;;5052734;28;20044;-81
2022/11/26 10:44:33;;;;;;;;;;;153.80;2252.80;;;;;;5052944;28;20040;-83
2022/11/26 10:47:16;;;;;;;99.93;37.97;;;153.90;2252.80;;;;;;5052937;28;20347;-85
2022/11/26 10:49:42;;;;;;;60.05;27.23;;;153.90;2252.80;;;;;;5052760;28;20032;-83
2022/11/26 10:52:08;;;;;;;;;;;154.10;2252.80;;;;;;5053619;28;20481;-83
2022/11/26 10:54:36;;;;;;;56.67;25.20;;;154.10;2252.80;;;;;;5035896;28;19917;-84
2022/11/26 10:57:22;;;;;;;58.97;27.10;;;154.00;2252.80;;;;;;5052427;28;20025;-83
2022/11/26 10:59:50;;;;;;;38.15;20.05;;;154.10;2252.80;;;;;;5052107;28;20052;-83
2022/11/26 11:02:16;;;;;;;32.67;17.33;;;154.30;2252.80;;;;;;5052211;28;20025;-81
2022/11/26 11:04:43;;;;;;;;;;;154.10;2252.80;;;;;;5052555;28;20043;-83
2022/11/26 11:07:36;;;;;;;27.77;14.60;;;154.10;2252.80;;;;;;5035530;28;19996;-82
2022/11/26 11:10:15;;;;;;;38.22;18.33;;;154.10;2252.80;;;;;;5032307;28;20124;-82
2022/11/26 11:12:47;;;;;;;42.15;21.35;;;154.10;2252.80;;;;;;5033054;28;20083;-85
2022/11/26 11:15:19;;;;;;;48.45;23.75;;;154.10;2252.80;;;;;;5015834;28;20057;-82
2022/11/26 11:17:53;;;;;;;44.70;24.23;;;154.20;2252.80;;;;;;5031936;28;20037;-81
2022/11/26 11:20:30;;;;;;;55.85;25.23;;;154.20;2252.80;;;;;;5015466;28;20109;-79
2022/11/26 11:23:23;;;;;;;39.53;19.85;;;154.30;2252.80;;;;;;5016325;28;20044;-79
2022/11/26 11:26:04;;;;;;;42.92;22.35;;;154.30;2252.80;;;;;;4993163;28;20066;-81
2022/11/26 11:28:33;;;;;;;37.80;20.88;;;154.50;2252.80;;;;;;4995966;28;20068;-83
2022/11/26 11:31:08;;;;;;;38.33;19.75;;;179.20;2252.80;;;;;;4996017;28;20113;-87
2022/11/26 11:33:34;;;;;;;39.45;21.45;;;179.30;2252.80;;;;;;4995970;28;20033;-87
2022/11/26 11:36:04;;;;;;;;;;;179.30;2252.80;;;;;;4996415;28;20042;-85
2022/11/26 11:38:43;;;;;;;53.88;24.08;;;179.30;2252.80;;;;;;5012329;28;19915;-84
2022/11/26 11:41:18;;;;;;;49.80;24.48;;;179.30;2252.80;;;;;;4995717;28;20493;-85
2022/11/26 11:43:44;;;;;;;70.38;32.00;;;179.30;2252.80;;;;;;5007283;28;20033;-87
2022/11/26 11:46:24;;;;;;;;;;;179.40;2252.80;;;;;;5012828;28;20450;-87
2022/11/26 11:49:27;;;;;;;64.20;31.48;;;179.40;2252.80;;;;;;5006864;28;20003;-90
2022/11/26 11:52:08;;;;;;;63.35;31.52;;;179.30;2252.80;;;;;;5015296;28;20038;-85
2022/11/26 11:54:55;;;;;;;64.97;32.50;;;179.20;2252.80;;;;;;5016076;28;20052;-84
2022/11/26 11:57:59;;;;;;;68.15;32.55;;;179.20;2252.80;;;;;;5016248;28;20434;-87
2022/11/26 12:00:48;;;;;;;43.28;23.45;;;179.20;2252.80;;;;;;5011649;28;20026;-86
2022/11/26 12:03:20;;;;;;;40.65;22.13;;;154.50;2252.80;;;;;;4975069;28;20106;-85
2022/11/26 12:06:35;;;;;;;45.17;23.02;;;154.40;2252.80;;;;;;4975590;28;20038;-86
2022/11/26 12:09:32;;;;;;;39.13;22.20;;;179.40;2252.80;;;;;;4944415;29;20054;-85
2022/11/26 12:12:06;;;;;;;42.05;21.50;;;179.40;2252.80;;;;;;4939800;29;20126;-86
2022/11/26 12:14:37;;;;;;;47.05;26.58;;;179.50;2252.80;;;;;;4933684;29;20035;-85
2022/11/26 12:17:09;;;;;;;56.95;30.85;;;179.30;2252.80;;;;;;4917970;29;20036;-87
2022/11/26 12:19:35;;;;;;;72.20;37.45;;;179.30;2252.80;;;;;;4918333;29;20032;-84
2022/11/26 12:22:05;;;;;;;;;;;179.40;2252.80;;;;;;4937347;29;20039;-89
2022/11/26 12:24:36;;;;;;;84.68;43.22;;;179.50;2252.80;;;;;;4921049;29;19917;-79
2022/11/26 12:27:27;;;;;;;134.27;58.58;;;179.60;2252.80;;;;;;4936200;29;20040;-83
2022/11/26 12:30:00;;;;;;;117.53;51.97;;;179.80;2252.80;;;;;;4923317;29;20051;-79
2022/11/26 12:32:55;;;;;;;117.72;56.67;;;179.80;2252.80;;;;;;4936511;29;20111;-86
2022/11/26 12:35:28;;;;;;;116.57;57.72;;;179.70;2252.80;;;;;;4936084;29;20121;-75
2022/11/26 12:38:03;;;;;;;117.40;57.55;;;179.90;2252.80;;;;;;4936006;29;20409;-76
2022/11/26 12:40:39;;;;;;;117.18;60.25;;;179.90;2252.80;;;;;;4932035;28;20571;-84
2022/11/26 12:43:15;;;;;;;104.55;51.10;;;180.00;2252.80;;;;;;4942005;29;20035;-79
2022/11/26 12:46:06;;;;;;;142.00;72.72;;;179.90;2252.80;;;;;;5015501;28;20037;-80